Loch Alpine, Michigan
Current Conditions -  °F | °C
As of 4:53 PM on Monday 26 Jan 2015 (Local Time) from KARB Reporting Station
Clear Clear  
Wind Chill: 18°   Ceiling: Unl
Heat Index: 25°   Visibility: 10mi
Dew Point:   Wind: 6mph
Humidity: 45%   Direction: 20°NNE
Pressure: 29.9"   Gusts: NA
Location:  42.2601°N, 83.8448°W
Report Text: KARB 262153Z 02005KT 10SM CLR M04/M14 A2990 RMK AO2 SLP138 T10391144
Loading
Personal Weather Stations






























Interactive Weather Map New forecast layout! Learn more

10-Day Weather Forecast

Advertisements
Track Severe Weather on mobile